createdAt,value
2023-05-06T00:01:36.427Z,15.76
2023-05-06T00:04:04.293Z,15.17
2023-05-06T00:06:32.814Z,15.26
2023-05-06T00:09:01.914Z,15.88
2023-05-06T00:11:34.429Z,17.11
2023-05-06T00:14:11.084Z,17.12
2023-05-06T00:16:39.974Z,16.76
2023-05-06T00:19:10.388Z,16.57
2023-05-06T00:21:38.942Z,15.01
2023-05-06T00:24:08.367Z,16.74
2023-05-06T00:26:36.921Z,16.30
2023-05-06T00:29:04.821Z,15.67
2023-05-06T00:31:32.685Z,15.31
2023-05-06T00:34:00.503Z,17.49
2023-05-06T00:36:28.249Z,16.53
2023-05-06T00:38:56.181Z,17.04
2023-05-06T00:41:25.316Z,17.44
2023-05-06T00:43:53.001Z,17.09
2023-05-06T00:46:20.832Z,16.97
2023-05-06T00:48:51.279Z,16.46
2023-05-06T00:51:19.040Z,16.81
2023-05-06T00:53:49.001Z,16.77
2023-05-06T00:56:20.061Z,15.60
2023-05-06T00:58:50.977Z,15.55
2023-05-06T01:01:18.891Z,14.58
2023-05-06T01:03:47.119Z,16.32
2023-05-06T01:06:18.124Z,15.98
2023-05-06T01:08:51.777Z,16.38
2023-05-06T01:11:23.214Z,16.48
2023-05-06T01:13:56.524Z,16.64
2023-05-06T01:16:24.689Z,14.27
2023-05-06T01:18:52.360Z,16.89
2023-05-06T01:21:20.125Z,15.24
2023-05-06T01:23:57.699Z,15.16
2023-05-06T01:26:25.790Z,15.90
2023-05-06T01:28:53.569Z,15.62
2023-05-06T01:31:25.505Z,16.56
2023-05-06T01:33:58.835Z,16.51
2023-05-06T01:36:30.086Z,13.94
2023-05-06T01:39:07.992Z,13.91
2023-05-06T01:41:35.775Z,15.52
2023-05-06T01:44:03.506Z,16.44
2023-05-06T01:46:32.002Z,15.55
2023-05-06T01:48:59.744Z,16.44
2023-05-06T01:51:27.449Z,15.82
2023-05-06T01:53:55.157Z,15.29
2023-05-06T01:56:24.271Z,16.49
2023-05-06T01:58:51.954Z,15.12
2023-05-06T02:01:19.745Z,15.88
2023-05-06T02:04:23.597Z,16.55
2023-05-06T02:06:54.150Z,16.18
2023-05-06T02:09:22.262Z,15.95
2023-05-06T02:11:51.316Z,15.86
2023-05-06T02:14:19.022Z,14.39
2023-05-06T02:16:46.657Z,16.50
2023-05-06T02:19:14.820Z,15.34
2023-05-06T02:21:42.498Z,15.85
2023-05-06T02:24:10.116Z,15.96
2023-05-06T02:26:37.766Z,15.36
2023-05-06T02:29:06.888Z,14.61
2023-05-06T02:31:34.623Z,15.58
2023-05-06T02:34:02.471Z,15.67
2023-05-06T02:36:30.147Z,16.48
2023-05-06T02:38:57.810Z,14.54
2023-05-06T02:41:25.628Z,15.60
2023-05-06T02:43:53.285Z,15.91
2023-05-06T02:46:22.539Z,14.60
2023-05-06T02:48:50.235Z,15.46
2023-05-06T02:51:17.982Z,15.40
2023-05-06T02:53:45.724Z,14.88
2023-05-06T02:56:13.433Z,16.60
2023-05-06T02:58:41.203Z,15.95
2023-05-06T03:01:09.248Z,15.76
2023-05-06T03:03:38.388Z,15.90
2023-05-06T03:06:06.610Z,15.68
2023-05-06T03:08:34.435Z,16.33
2023-05-06T03:11:02.211Z,16.47
2023-05-06T03:13:29.844Z,15.50
2023-05-06T03:15:57.538Z,14.54
2023-05-06T03:18:25.276Z,15.34
2023-05-06T03:20:54.314Z,14.77
2023-05-06T03:23:21.955Z,16.47
2023-05-06T03:25:49.584Z,15.36
2023-05-06T03:28:17.560Z,15.66
2023-05-06T03:30:45.324Z,16.07
2023-05-06T03:33:13.058Z,14.99
2023-05-06T03:35:40.981Z,16.13
2023-05-06T03:38:10.392Z,16.49
2023-05-06T03:40:38.132Z,15.69
2023-05-06T03:43:05.877Z,15.41
2023-05-06T03:45:33.599Z,16.21
2023-05-06T03:48:01.302Z,16.28
2023-05-06T03:50:29.003Z,15.54
2023-05-06T03:52:56.707Z,15.30
2023-05-06T03:55:25.870Z,16.49
2023-05-06T03:57:53.683Z,16.14
2023-05-06T04:00:21.949Z,15.82
2023-05-06T04:02:49.766Z,15.24
2023-05-06T04:05:17.634Z,15.53
2023-05-06T04:07:45.479Z,16.47
2023-05-06T04:10:13.354Z,14.58
2023-05-06T04:12:42.389Z,15.35
2023-05-06T04:15:11.633Z,16.48
2023-05-06T04:17:39.416Z,15.26
2023-05-06T04:20:11.297Z,16.36
2023-05-06T04:22:39.156Z,15.27
2023-05-06T04:25:08.497Z,15.78
2023-05-06T04:27:36.345Z,15.86
2023-05-06T04:30:05.746Z,15.62
2023-05-06T04:32:34.060Z,15.24
2023-05-06T04:35:01.735Z,14.93
2023-05-06T04:37:29.363Z,15.71
2023-05-06T04:39:57.114Z,15.00
2023-05-06T04:42:24.825Z,14.23
2023-05-06T04:44:52.499Z,16.46
2023-05-06T04:47:23.731Z,15.65
2023-05-06T04:49:51.407Z,14.83
2023-05-06T04:52:19.107Z,15.44
2023-05-06T04:54:46.783Z,15.88
2023-05-06T04:57:14.626Z,15.75
2023-05-06T04:59:42.690Z,14.96
2023-05-06T05:02:10.503Z,16.21
2023-05-06T05:04:39.688Z,15.06
2023-05-06T05:07:07.480Z,16.01
2023-05-06T05:09:35.430Z,15.40
2023-05-06T05:12:03.235Z,16.48
2023-05-06T05:14:30.879Z,16.79
2023-05-06T05:16:58.609Z,15.80
2023-05-06T05:19:26.246Z,16.24
2023-05-06T05:21:55.977Z,16.85
2023-05-06T05:24:23.659Z,15.54
2023-05-06T05:26:51.421Z,14.85
2023-05-06T05:29:19.107Z,16.37
2023-05-06T05:31:46.871Z,15.19
2023-05-06T05:34:14.712Z,15.71
2023-05-06T05:36:42.581Z,14.82
2023-05-06T05:39:11.665Z,15.44
2023-05-06T05:41:39.485Z,16.46
2023-05-06T05:44:07.312Z,16.64
2023-05-06T05:46:35.054Z,16.82
2023-05-06T05:49:04.670Z,17.54
2023-05-06T05:51:32.543Z,15.89
2023-05-06T05:54:00.877Z,17.43
2023-05-06T05:56:30.144Z,17.10
2023-05-06T05:58:57.922Z,17.28
2023-05-06T06:01:25.809Z,18.22
2023-05-06T06:03:54.404Z,17.98
2023-05-06T06:06:23.569Z,18.87
2023-05-06T06:08:51.477Z,20.43
2023-05-06T06:11:19.320Z,19.69
2023-05-06T06:13:48.776Z,19.50
2023-05-06T06:16:16.958Z,21.27
2023-05-06T06:18:44.870Z,21.77
2023-05-06T06:21:14.719Z,21.76
2023-05-06T06:23:42.564Z,22.18
2023-05-06T06:26:12.183Z,22.46
2023-05-06T06:28:40.628Z,21.75
2023-05-06T06:31:09.787Z,23.77
2023-05-06T06:33:37.566Z,23.89
2023-05-06T06:36:06.140Z,23.68
2023-05-06T06:38:34.101Z,23.15
2023-05-06T06:41:03.089Z,24.53
2023-05-06T06:43:31.432Z,23.79
2023-05-06T06:45:59.296Z,24.46
2023-05-06T06:48:28.647Z,25.88
2023-05-06T06:50:56.603Z,24.97
2023-05-06T06:53:24.434Z,24.99
2023-05-06T06:55:52.322Z,26.92
2023-05-06T06:58:23.115Z,25.96
2023-05-06T07:00:51.124Z,28.08
2023-05-06T07:03:19.738Z,26.00
2023-05-06T07:05:49.408Z,28.20
2023-05-06T07:08:18.074Z,26.96
2023-05-06T07:10:46.220Z,28.46
2023-05-06T07:13:14.340Z,28.48
2023-05-06T07:15:49.223Z,28.08
2023-05-06T07:18:18.191Z,28.53
2023-05-06T07:20:54.584Z,28.47
2023-05-06T07:23:22.548Z,31.10
2023-05-06T07:25:50.531Z,29.52
2023-05-06T07:28:18.298Z,30.78
2023-05-06T07:30:46.509Z,30.02
2023-05-06T07:33:14.464Z,31.63
2023-05-06T07:35:42.233Z,31.71
2023-05-06T07:38:11.701Z,31.64
2023-05-06T07:40:42.912Z,31.65
2023-05-06T07:43:10.818Z,30.95
2023-05-06T07:45:38.719Z,30.98
2023-05-06T07:48:07.179Z,32.06
2023-05-06T07:50:35.290Z,33.21
2023-05-06T07:53:04.017Z,33.74
2023-05-06T07:55:35.121Z,32.61
2023-05-06T07:58:03.383Z,34.10
2023-05-06T08:00:31.263Z,32.93
2023-05-06T08:02:59.209Z,33.25
2023-05-06T08:05:27.107Z,35.15
2023-05-06T08:07:55.728Z,34.59
2023-05-06T08:10:23.857Z,35.03
2023-05-06T08:12:54.246Z,35.02
2023-05-06T08:15:24.726Z,34.41
2023-05-06T08:17:53.189Z,34.61
2023-05-06T08:20:21.036Z,36.37
2023-05-06T08:22:49.581Z,35.42
2023-05-06T08:25:18.165Z,36.07
2023-05-06T08:27:46.711Z,35.72
2023-05-06T08:30:17.203Z,35.92
2023-05-06T08:32:45.308Z,36.16
2023-05-06T08:35:14.425Z,35.11
2023-05-06T08:37:42.379Z,35.02
2023-05-06T08:40:15.344Z,34.25
2023-05-06T08:42:43.149Z,35.68
2023-05-06T08:45:12.976Z,36.05
2023-05-06T08:47:42.598Z,36.29
2023-05-06T08:50:11.401Z,36.08
2023-05-06T08:52:39.581Z,37.42
2023-05-06T08:55:09.075Z,35.93
2023-05-06T08:57:36.904Z,37.04
2023-05-06T09:00:06.420Z,36.72
2023-05-06T09:02:34.626Z,37.96
2023-05-06T09:05:03.928Z,38.69
2023-05-06T09:07:31.629Z,39.02
2023-05-06T09:09:59.683Z,38.81
2023-05-06T09:12:27.712Z,37.82
2023-05-06T09:14:56.129Z,38.06
2023-05-06T09:17:26.605Z,40.08
2023-05-06T09:19:57.637Z,40.31
2023-05-06T09:22:27.277Z,40.17
2023-05-06T09:24:57.632Z,39.68
2023-05-06T09:27:26.634Z,39.41
2023-05-06T09:30:02.238Z,40.15
2023-05-06T09:32:30.151Z,40.18
2023-05-06T09:34:57.973Z,39.22
2023-05-06T09:37:27.500Z,41.36
2023-05-06T09:39:55.837Z,41.06
2023-05-06T09:42:25.384Z,42.13
2023-05-06T09:44:54.652Z,41.81
2023-05-06T09:47:23.152Z,42.12
2023-05-06T09:49:51.016Z,42.98
2023-05-06T09:52:20.863Z,43.37
2023-05-06T09:54:51.701Z,42.37
2023-05-06T09:57:19.931Z,41.28
2023-05-06T09:59:47.994Z,41.33
2023-05-06T10:02:16.062Z,41.69
2023-05-06T10:04:45.998Z,41.98
2023-05-06T10:07:14.416Z,42.82
2023-05-06T10:09:42.854Z,42.16
2023-05-06T10:12:12.066Z,42.00
2023-05-06T10:14:39.971Z,40.68
2023-05-06T10:17:12.885Z,40.17
2023-05-06T10:19:41.659Z,38.76
2023-05-06T10:22:12.566Z,39.23
2023-05-06T10:24:47.573Z,39.69
2023-05-06T10:27:17.104Z,38.76
2023-05-06T10:29:45.017Z,38.65
2023-05-06T10:32:13.629Z,36.52
2023-05-06T10:34:45.113Z,37.10
2023-05-06T10:37:13.103Z,38.36
2023-05-06T10:39:42.200Z,38.25
2023-05-06T10:42:11.643Z,36.89
2023-05-06T10:45:03.817Z,35.75
2023-05-06T10:48:05.906Z,37.45
2023-05-06T10:50:33.864Z,36.82
2023-05-06T10:53:02.359Z,37.12
2023-05-06T10:55:31.082Z,38.99
2023-05-06T10:58:02.874Z,40.51
2023-05-06T11:00:34.652Z,40.32
2023-05-06T11:03:08.374Z,42.12
2023-05-06T11:05:47.344Z,43.55
2023-05-06T11:08:15.459Z,45.05
2023-05-06T11:10:43.318Z,44.20
2023-05-06T11:13:29.422Z,42.74
2023-05-06T11:15:59.246Z,41.50
2023-05-06T11:18:43.197Z,40.59
2023-05-06T11:21:39.049Z,39.51
2023-05-06T11:24:11.581Z,37.41
2023-05-06T11:26:42.247Z,37.14
2023-05-06T11:29:10.385Z,36.05
2023-05-06T11:31:44.503Z,35.68
2023-05-06T11:34:14.529Z,36.36
2023-05-06T11:36:50.405Z,34.47
2023-05-06T11:39:18.343Z,34.86
2023-05-06T11:41:46.775Z,35.04
2023-05-06T11:44:25.314Z,34.81
2023-05-06T11:46:58.408Z,34.05
2023-05-06T11:49:27.010Z,33.28
2023-05-06T11:51:55.698Z,32.46
2023-05-06T11:54:24.506Z,32.45
2023-05-06T11:56:52.958Z,32.30
2023-05-06T11:59:29.051Z,33.74
2023-05-06T12:02:00.045Z,31.81
2023-05-06T12:04:28.148Z,32.92
2023-05-06T12:06:57.220Z,32.40
2023-05-06T12:09:25.130Z,32.19
2023-05-06T12:11:52.887Z,33.48
2023-05-06T12:14:20.653Z,32.54
2023-05-06T12:16:48.603Z,32.08
2023-05-06T12:19:18.685Z,32.99
2023-05-06T12:21:47.248Z,31.92
2023-05-06T12:24:15.122Z,33.83
2023-05-06T12:26:46.630Z,33.35
2023-05-06T12:29:17.226Z,32.31
2023-05-06T12:31:47.271Z,32.39
2023-05-06T12:34:19.695Z,33.69
2023-05-06T12:36:47.904Z,33.07
2023-05-06T12:39:17.588Z,31.73
2023-05-06T12:41:45.965Z,33.02
2023-05-06T12:44:33.520Z,32.09
2023-05-06T12:47:02.544Z,33.24
2023-05-06T13:21:58.046Z,32.02
2023-05-06T13:32:43.615Z,30.01
2023-05-06T13:42:55.056Z,30.95
2023-05-06T14:15:36.245Z,29.26
2023-05-06T14:18:07.310Z,29.57
2023-05-06T14:20:35.217Z,29.51
2023-05-06T14:23:06.747Z,28.81
2023-05-06T14:25:35.188Z,29.31
2023-05-06T14:28:03.446Z,28.70
2023-05-06T14:30:34.436Z,27.75
2023-05-06T14:33:02.524Z,28.54
2023-05-06T14:35:32.080Z,28.98
2023-05-06T14:37:59.888Z,28.59
2023-05-06T14:40:27.810Z,27.86
2023-05-06T14:42:55.757Z,28.42
2023-05-06T14:45:23.636Z,26.65
2023-05-06T14:47:51.638Z,27.52
2023-05-06T14:50:19.626Z,28.73
2023-05-06T14:52:48.769Z,27.62
2023-05-06T14:55:16.767Z,28.24
2023-05-06T14:57:44.624Z,27.44
2023-05-06T15:00:14.901Z,28.72
2023-05-06T15:02:42.981Z,27.75
2023-05-06T15:05:19.070Z,28.45
2023-05-06T15:07:48.178Z,26.63
2023-05-06T15:10:16.117Z,27.74
2023-05-06T15:12:43.921Z,28.51
2023-05-06T15:15:11.892Z,27.76
2023-05-06T15:17:41.732Z,26.58
2023-05-06T15:20:10.755Z,26.13
2023-05-06T15:22:39.617Z,26.38
2023-05-06T15:25:22.603Z,26.42
2023-05-06T15:27:57.946Z,26.14
2023-05-06T15:30:25.668Z,25.64
2023-05-06T15:33:02.868Z,25.95
2023-05-06T15:35:58.978Z,25.62
2023-05-06T15:38:42.136Z,25.32
2023-05-06T15:43:47.956Z,23.97
2023-05-06T15:46:30.526Z,23.99
2023-05-06T15:50:03.624Z,21.46
2023-05-06T15:52:38.937Z,24.20
2023-05-06T15:55:07.849Z,22.73
2023-05-06T15:57:35.813Z,24.11
2023-05-06T16:00:05.435Z,24.11
2023-05-06T16:02:39.107Z,24.06
2023-05-06T16:05:09.636Z,24.03
2023-05-06T16:07:37.411Z,24.09
2023-05-06T16:10:06.167Z,24.14
2023-05-06T16:12:34.047Z,24.04
2023-05-06T16:15:03.130Z,23.75
2023-05-06T16:17:33.086Z,24.24
2023-05-06T16:20:00.840Z,24.21
2023-05-06T16:22:28.687Z,24.36
2023-05-06T16:24:56.366Z,23.85
2023-05-06T16:27:27.473Z,23.76
2023-05-06T16:29:55.384Z,23.78
2023-05-06T16:32:23.954Z,24.37
2023-05-06T16:34:53.117Z,24.47
2023-05-06T16:37:21.014Z,24.47
2023-05-06T16:39:52.279Z,23.91
2023-05-06T16:42:20.043Z,24.31
2023-05-06T16:44:47.696Z,24.51
2023-05-06T16:47:16.044Z,23.29
2023-05-06T16:49:59.526Z,23.36
2023-05-06T16:52:30.687Z,23.71
2023-05-06T16:54:58.910Z,24.37
2023-05-06T16:57:26.669Z,23.89
2023-05-06T16:59:54.384Z,22.88
2023-05-06T17:02:22.635Z,23.81
2023-05-06T17:04:50.478Z,23.96
2023-05-06T17:07:34.544Z,24.31
2023-05-06T17:10:02.332Z,24.30
2023-05-06T17:12:30.069Z,24.24
2023-05-06T17:14:57.830Z,22.75
2023-05-06T17:17:28.793Z,21.74
2023-05-06T17:22:54.217Z,24.07
2023-05-06T17:25:23.274Z,24.05
2023-05-06T17:27:51.035Z,24.02
2023-05-06T17:30:21.105Z,23.56
2023-05-06T17:32:48.870Z,23.25
2023-05-06T17:35:20.544Z,22.16
2023-05-06T17:37:48.815Z,21.19
2023-05-06T17:40:18.732Z,23.57
2023-05-06T17:42:46.434Z,23.36
2023-05-06T17:45:14.563Z,21.61
2023-05-06T17:47:42.351Z,23.47
2023-05-06T17:50:11.233Z,23.53
2023-05-06T17:52:41.114Z,23.71
2023-05-06T17:55:16.586Z,23.31
2023-05-06T17:57:46.887Z,23.70
2023-05-06T18:00:18.869Z,23.08
2023-05-06T18:02:46.848Z,23.46
2023-05-06T18:05:14.751Z,23.19
2023-05-06T18:07:42.465Z,23.53
2023-05-06T18:10:11.265Z,23.47
2023-05-06T18:12:39.343Z,22.81
2023-05-06T18:15:09.832Z,23.24
2023-05-06T18:17:37.775Z,22.88
2023-05-06T18:20:06.616Z,21.35
2023-05-06T18:22:35.368Z,22.64
2023-05-06T18:25:04.283Z,23.18
2023-05-06T18:27:32.399Z,23.14
2023-05-06T18:30:00.436Z,22.63
2023-05-06T18:32:29.473Z,22.69
2023-05-06T18:34:57.391Z,22.18
2023-05-06T18:37:25.419Z,23.07
2023-05-06T18:39:53.002Z,23.02
2023-05-06T18:42:21.805Z,22.97
2023-05-06T18:44:50.249Z,21.98
2023-05-06T18:47:18.014Z,22.91
2023-05-06T18:49:47.150Z,22.86
2023-05-06T18:52:16.566Z,22.80
2023-05-06T18:54:44.418Z,22.32
2023-05-06T18:57:12.374Z,22.47
2023-05-06T18:59:40.571Z,22.46
2023-05-06T19:02:08.738Z,22.20
2023-05-06T19:04:36.682Z,22.67
2023-05-06T19:07:07.029Z,22.60
2023-05-06T19:09:36.960Z,22.13
2023-05-06T19:12:05.122Z,22.32
2023-05-06T19:14:34.553Z,22.20
2023-05-06T19:17:02.398Z,21.07
2023-05-06T19:19:31.299Z,21.27
2023-05-06T19:22:14.636Z,19.44
2023-05-06T19:24:49.331Z,22.11
2023-05-06T19:27:34.314Z,20.82
2023-05-06T19:30:18.129Z,19.38
2023-05-06T19:32:49.651Z,21.00
2023-05-06T19:35:17.518Z,21.34
2023-05-06T19:37:45.264Z,21.94
2023-05-06T19:40:14.541Z,21.91
2023-05-06T19:42:42.164Z,21.16
2023-05-06T19:45:11.669Z,21.77
2023-05-06T19:47:39.801Z,21.95
2023-05-06T19:50:10.250Z,21.30
2023-05-06T19:52:38.284Z,21.88
2023-05-06T19:55:09.633Z,21.53
2023-05-06T19:57:39.119Z,21.79
2023-05-06T20:00:10.104Z,21.77
2023-05-06T20:02:38.790Z,21.56
2023-05-06T20:05:07.472Z,21.30
2023-05-06T20:07:35.498Z,21.42
2023-05-06T20:10:03.374Z,21.74
2023-05-06T20:12:31.451Z,20.23
2023-05-06T20:15:00.660Z,21.68
2023-05-06T20:17:28.530Z,21.66
2023-05-06T20:20:23.791Z,21.64
2023-05-06T20:22:51.599Z,18.41
2023-05-06T20:25:22.436Z,20.77
2023-05-06T20:28:18.942Z,21.68
2023-05-06T20:31:14.191Z,21.68
2023-05-06T20:33:42.607Z,21.70
2023-05-06T20:36:21.726Z,21.68
2023-05-06T20:38:56.834Z,20.42
2023-05-06T20:41:24.670Z,21.64
2023-05-06T20:43:53.260Z,21.56
2023-05-06T20:46:22.345Z,21.63
2023-05-06T20:48:51.396Z,20.59
2023-05-06T20:51:40.380Z,21.45
2023-05-06T20:54:07.977Z,21.61
2023-05-06T20:56:47.169Z,21.62
2023-05-06T20:59:14.994Z,21.38
2023-05-06T21:01:45.142Z,21.59
2023-05-06T21:04:12.889Z,21.56
2023-05-06T21:06:40.805Z,20.73
2023-05-06T21:09:12.141Z,21.12
2023-05-06T21:11:39.841Z,20.15
2023-05-06T21:14:07.816Z,20.28
2023-05-06T21:16:35.706Z,21.52
2023-05-06T21:19:04.813Z,21.52
2023-05-06T21:21:33.191Z,21.49
2023-05-06T21:24:01.241Z,21.38
2023-05-06T21:26:37.515Z,20.90
2023-05-06T21:29:11.411Z,17.91
2023-05-06T21:31:39.712Z,21.11
2023-05-06T21:34:15.506Z,21.40
2023-05-06T21:36:46.953Z,19.57
2023-05-06T21:39:16.156Z,21.43
2023-05-06T21:41:43.908Z,21.42
2023-05-06T21:44:11.576Z,21.37
2023-05-06T21:46:48.574Z,21.34
2023-05-06T21:49:17.897Z,21.01
2023-05-06T21:51:45.715Z,21.32
2023-05-06T21:54:13.327Z,21.31
2023-05-06T21:56:42.591Z,21.05
2023-05-06T21:59:10.436Z,21.29
2023-05-06T22:01:38.372Z,21.30
2023-05-06T22:04:12.512Z,21.29
2023-05-06T22:07:22.136Z,19.39
2023-05-06T22:09:53.171Z,20.30
2023-05-06T22:12:23.856Z,19.18
2023-05-06T22:14:51.769Z,20.32
2023-05-06T22:17:19.492Z,21.28
2023-05-06T22:19:47.530Z,21.23
2023-05-06T22:22:17.060Z,21.17
2023-05-06T22:24:44.799Z,21.14
2023-05-06T22:27:12.442Z,20.78
2023-05-06T22:29:40.250Z,20.84
2023-05-06T22:32:08.025Z,20.85
2023-05-06T22:34:35.983Z,20.89
2023-05-06T22:37:06.072Z,20.85
2023-05-06T22:39:35.603Z,20.83
